Time;durP1;ratioP1;P1;durP2;ratioP2;P2;SDS_P1;SDS_P2;PMS_P1;PMS_P2;Temp;Humidity;BMP_temperature;BMP_pressure;BME280_temperature;BME280_humidity;BME280_pressure;Samples;Min_cycle;Max_cycle;Signal;HPM_P1;HPM_P2
2023/06/25 00:00:55;;;;;;;7.43;6.10;;;19.30;29.60;;;;;;5051348;28;20438;-72
2023/06/25 00:03:21;;;;;;;6.72;6.03;;;19.30;30.50;;;;;;5050457;28;20017;-73
2023/06/25 00:05:47;;;;;;;7.78;6.22;;;19.30;33.70;;;;;;5051313;28;20029;-73
2023/06/25 00:08:12;;;;;;;9.85;5.82;;;19.30;40.20;;;;;;5050671;28;20035;-73
2023/06/25 00:10:38;;;;;;;7.65;5.72;;;19.20;47.80;;;;;;5051372;28;20108;-73
2023/06/25 00:13:04;;;;;;;8.50;5.68;;;19.20;45.80;;;;;;5050588;28;20029;-71
2023/06/25 00:15:30;;;;;;;7.93;6.03;;;19.30;43.60;;;;;;5051323;28;20029;-72
2023/06/25 00:17:56;;;;;;;8.48;5.55;;;19.30;47.70;;;;;;5051226;28;20043;-72
2023/06/25 00:20:23;;;;;;;6.75;5.88;;;19.30;47.60;;;;;;5050441;28;20651;-73
2023/06/25 00:22:49;;;;;;;6.85;5.97;;;19.30;49.70;;;;;;5051029;28;20113;-73
2023/06/25 00:25:16;;;;;;;7.35;6.18;;;19.30;52.60;;;;;;5050607;28;20119;-72
2023/06/25 00:27:47;;;;;;;9.50;6.45;;;19.30;48.50;;;;;;5050691;28;20045;-72
2023/06/25 00:30:16;;;;;;;7.10;6.13;;;19.30;52.80;;;;;;5050414;28;20032;-72
2023/06/25 00:32:43;;;;;;;7.35;5.32;;;19.20;61.30;;;;;;5050979;28;20020;-73
2023/06/25 00:35:13;;;;;;;8.30;6.25;;;19.20;62.30;;;;;;5049877;28;20032;-73
2023/06/25 00:37:41;;;;;;;8.93;6.15;;;19.30;57.10;;;;;;5050563;28;20470;-73
2023/06/25 00:40:08;;;;;;;6.25;5.65;;;19.30;58.00;;;;;;5050088;28;20113;-73
2023/06/25 00:42:41;;;;;;;6.50;5.70;;;19.30;56.80;;;;;;5050504;28;20029;-72
2023/06/25 00:45:09;;;;;;;6.88;5.72;;;19.30;56.30;;;;;;5049748;28;20057;-73
2023/06/25 00:47:35;;;;;;;5.75;4.85;;;19.40;55.00;;;;;;5049875;28;20029;-73
2023/06/25 00:50:02;;;;;;;5.63;5.00;;;19.40;53.20;;;;;;5050247;28;20062;-73
2023/06/25 00:52:29;;;;;;;6.20;5.60;;;19.40;51.40;;;;;;5049825;28;20426;-73
2023/06/25 00:54:55;;;;;;;7.65;5.80;;;19.40;47.90;;;;;;5050329;28;20032;-72
2023/06/25 00:57:21;;;;;;;9.70;6.07;;;19.40;47.80;;;;;;5050039;28;20033;-73
2023/06/25 00:59:48;;;;;;;8.15;5.82;;;19.40;48.10;;;;;;5050299;28;20040;-72
2023/06/25 01:02:20;;;;;;;7.88;6.53;;;19.40;44.40;;;;;;5049338;28;20047;-72
2023/06/25 01:04:57;;;;;;;6.80;5.33;;;19.40;42.10;;;;;;5050315;28;20037;-72
2023/06/25 01:07:25;;;;;;;8.57;6.20;;;19.50;34.60;;;;;;5049591;28;20089;-73
2023/06/25 01:09:51;;;;;;;6.85;5.40;;;19.50;32.50;;;;;;5050085;28;20021;-72
2023/06/25 01:12:17;;;;;;;8.25;5.88;;;19.50;34.10;;;;;;5049547;28;20086;-73
2023/06/25 01:14:43;;;;;;;7.65;4.93;;;19.50;34.10;;;;;;5048483;28;20124;-72
2023/06/25 01:17:10;;;;;;;7.40;5.25;;;19.50;36.30;;;;;;5049305;28;20526;-74
2023/06/25 01:19:36;;;;;;;6.20;5.60;;;19.50;34.80;;;;;;5049444;28;20108;-73
2023/06/25 01:22:04;;;;;;;9.55;5.95;;;19.50;37.60;;;;;;5049861;28;20411;-72
2023/06/25 01:24:34;;;;;;;6.20;5.60;;;19.50;35.20;;;;;;5049733;28;20346;-71
2023/06/25 01:27:00;;;;;;;7.22;5.43;;;19.50;35.20;;;;;;5049419;28;20033;-71
2023/06/25 01:29:27;;;;;;;9.80;5.57;;;19.50;34.50;;;;;;5049563;28;20136;-72
2023/06/25 01:31:53;;;;;;;10.75;6.13;;;19.50;34.00;;;;;;5049883;28;20025;-71
2023/06/25 01:34:20;;;;;;;5.30;4.78;;;19.50;39.20;;;;;;5048858;28;20474;-71
2023/06/25 01:36:49;;;;;;;7.10;5.25;;;19.50;37.60;;;;;;5049986;28;20039;-71
2023/06/25 01:39:16;;;;;;;6.13;5.53;;;19.40;42.60;;;;;;5049140;28;20033;-72
2023/06/25 01:41:43;;;;;;;6.53;5.35;;;19.50;37.60;;;;;;5049793;28;20030;-73
2023/06/25 01:44:11;;;;;;;6.93;4.90;;;19.50;37.30;;;;;;5053428;28;20048;-74
2023/06/25 01:46:37;;;;;;;6.35;5.20;;;19.50;38.50;;;;;;5053135;28;20025;-72
2023/06/25 01:49:03;;;;;;;7.97;6.25;;;19.50;44.60;;;;;;5053590;28;20086;-72
2023/06/25 01:51:31;;;;;;;6.47;4.95;;;19.50;47.40;;;;;;5053145;28;20589;-73
2023/06/25 01:53:57;;;;;;;8.40;5.75;;;19.50;46.40;;;;;;5053324;28;20037;-72
2023/06/25 01:56:23;;;;;;;6.78;5.15;;;19.50;51.60;;;;;;5052869;28;20425;-73
2023/06/25 01:58:52;;;;;;;6.10;5.05;;;19.40;52.90;;;;;;5053747;28;20036;-73
2023/06/25 02:01:19;;;;;;;7.72;6.00;;;19.50;51.50;;;;;;5052820;28;20029;-73
2023/06/25 02:03:44;;;;;;;11.93;6.50;;;19.50;53.40;;;;;;5053147;28;20462;-73
2023/06/25 02:06:10;;;;;;;9.23;6.57;;;19.40;50.80;;;;;;5052835;28;20043;-74
2023/06/25 02:08:36;;;;;;;6.10;5.50;;;19.40;56.00;;;;;;5053266;28;20059;-71
2023/06/25 02:11:01;;;;;;;7.82;6.43;;;19.40;56.40;;;;;;5053366;28;20032;-71
2023/06/25 02:13:27;;;;;;;6.70;5.80;;;19.40;56.20;;;;;;5052741;28;20028;-72
2023/06/25 02:15:53;;;;;;;7.63;6.28;;;19.50;55.30;;;;;;5053051;28;20036;-72
2023/06/25 02:18:18;;;;;;;7.57;6.43;;;19.50;56.20;;;;;;5051126;28;20036;-72
2023/06/25 02:20:44;;;;;;;10.32;6.18;;;19.50;52.00;;;;;;5052736;28;20509;-72
2023/06/25 02:23:10;;;;;;;9.93;6.30;;;19.50;51.40;;;;;;5052513;28;20156;-73
2023/06/25 02:25:36;;;;;;;9.60;6.50;;;19.60;49.70;;;;;;5052610;28;20025;-72
2023/06/25 02:28:01;;;;;;;9.98;6.60;;;19.60;54.00;;;;;;5051241;28;20049;-72
2023/06/25 02:30:27;;;;;;;9.73;7.00;;;19.60;51.60;;;;;;5052102;28;20036;-72
2023/06/25 02:32:53;;;;;;;8.73;6.47;;;19.50;52.80;;;;;;5051669;28;20041;-72
2023/06/25 02:35:18;;;;;;;8.32;6.45;;;19.50;48.30;;;;;;5052121;28;20028;-72
2023/06/25 02:37:44;;;;;;;9.05;6.18;;;19.50;47.00;;;;;;5052706;28;20462;-73
2023/06/25 02:40:10;;;;;;;5.78;5.20;;;19.50;46.40;;;;;;5051366;28;20403;-71
2023/06/25 02:42:36;;;;;;;6.25;5.25;;;19.50;46.60;;;;;;5052398;28;20029;-71
2023/06/25 02:45:02;;;;;;;9.07;6.53;;;19.50;40.70;;;;;;5052685;28;20025;-71
2023/06/25 02:47:28;;;;;;;10.43;5.85;;;19.40;42.80;;;;;;5051909;28;20320;-71
2023/06/25 02:49:53;;;;;;;7.63;5.60;;;19.40;39.50;;;;;;5052247;28;20021;-71
2023/06/25 02:52:19;;;;;;;7.18;5.45;;;19.40;34.30;;;;;;5051946;28;20025;-71
2023/06/25 02:54:45;;;;;;;5.75;5.15;;;19.40;24.80;;;;;;5051137;28;20396;-71
2023/06/25 02:57:11;;;;;;;5.55;5.00;;;19.40;5.20;;;;;;5052483;28;20462;-71
2023/06/25 02:59:36;;;;;;;7.75;4.78;;;19.40;1.00;;;;;;5051917;28;20139;-71
2023/06/25 03:02:02;;;;;;;7.70;5.07;;;19.40;1.00;;;;;;5052542;28;20445;-71
2023/06/25 03:04:28;;;;;;;7.15;5.03;;;19.40;1.00;;;;;;5050272;28;20074;-71
2023/06/25 03:06:53;;;;;;;8.13;5.28;;;19.40;1.00;;;;;;5052442;28;20044;-70
2023/06/25 03:09:19;;;;;;;5.85;4.65;;;19.30;1.00;;;;;;5051820;28;20025;-71
2023/06/25 03:11:45;;;;;;;5.80;4.32;;;19.30;1.00;;;;;;5051930;28;20025;-71
2023/06/25 03:14:10;;;;;;;8.82;4.72;;;19.30;1.00;;;;;;5050910;28;20078;-71
2023/06/25 03:16:36;;;;;;;7.85;4.82;;;19.30;1.00;;;;;;5052027;28;20037;-71
2023/06/25 03:19:02;;;;;;;5.80;4.20;;;19.30;1.00;;;;;;5051887;28;20029;-71
2023/06/25 03:21:29;;;;;;;6.60;4.40;;;19.30;1.00;;;;;;5051099;28;20155;-71
2023/06/25 03:23:54;;;;;;;4.30;3.88;;;19.30;1.00;;;;;;5052234;28;20098;-71
2023/06/25 03:26:20;;;;;;;8.07;4.18;;;19.20;1.00;;;;;;5051468;28;20438;-71
2023/06/25 03:28:46;;;;;;;4.30;3.90;;;19.30;1.00;;;;;;5052079;28;20049;-71
2023/06/25 03:31:11;;;;;;;6.80;3.97;;;19.20;1.00;;;;;;5052554;28;20115;-71
2023/06/25 03:33:37;;;;;;;6.13;4.15;;;19.20;1.00;;;;;;5051333;28;20037;-73
2023/06/25 03:36:03;;;;;;;5.05;3.83;;;19.20;1.00;;;;;;5051540;28;20039;-72
2023/06/25 03:38:29;;;;;;;4.80;3.72;;;19.20;1.00;;;;;;5050999;28;20444;-72
2023/06/25 03:40:55;;;;;;;6.70;3.90;;;19.30;1.00;;;;;;5051830;28;20029;-72
2023/06/25 03:43:20;;;;;;;5.60;3.30;;;19.20;1.00;;;;;;5051217;28;20025;-72
2023/06/25 03:45:46;;;;;;;6.72;3.97;;;19.20;1.00;;;;;;5051404;28;20512;-72
2023/06/25 03:48:12;;;;;;;7.20;3.65;;;19.20;1.00;;;;;;5051305;28;20062;-72
2023/06/25 03:50:37;;;;;;;6.00;3.85;;;19.20;1.00;;;;;;5050969;28;20025;-72
2023/06/25 03:53:03;;;;;;;4.55;3.97;;;19.20;1.00;;;;;;5051645;28;20040;-72
2023/06/25 03:55:29;;;;;;;9.10;4.15;;;19.20;1.00;;;;;;5050889;28;20035;-72
2023/06/25 03:57:56;;;;;;;8.85;4.18;;;19.20;1.00;;;;;;5051897;28;20171;-72
2023/06/25 04:00:22;;;;;;;5.68;4.07;;;19.20;1.00;;;;;;5049373;28;20174;-72
2023/06/25 04:02:48;;;;;;;4.20;3.45;;;19.10;1.00;;;;;;5050852;28;20474;-72
2023/06/25 04:05:14;;;;;;;5.50;3.75;;;19.20;1.00;;;;;;5050724;28;20052;-73
2023/06/25 04:07:39;;;;;;;3.95;3.50;;;19.10;1.00;;;;;;5050325;28;20029;-71
2023/06/25 04:10:05;;;;;;;7.10;3.95;;;19.20;1.00;;;;;;5050753;28;20025;-71
2023/06/25 04:12:31;;;;;;;6.43;4.45;;;19.20;1.00;;;;;;5050671;28;20024;-72
2023/06/25 04:14:57;;;;;;;6.95;4.28;;;19.20;1.00;;;;;;5051084;28;20035;-71
2023/06/25 04:17:22;;;;;;;6.28;4.13;;;19.20;1.00;;;;;;5050055;28;20063;-72
2023/06/25 04:19:48;;;;;;;6.28;3.95;;;19.10;1.00;;;;;;5050520;28;20323;-71
2023/06/25 04:22:14;;;;;;;4.45;3.97;;;19.20;1.00;;;;;;5050366;28;20071;-72
2023/06/25 04:24:39;;;;;;;6.07;4.25;;;19.10;1.00;;;;;;5050618;28;20136;-73
2023/06/25 04:27:06;;;;;;;7.95;3.90;;;19.10;1.00;;;;;;5050714;28;20450;-72
2023/06/25 04:29:31;;;;;;;5.13;3.70;;;19.10;1.00;;;;;;5048664;28;20131;-72
2023/06/25 04:31:57;;;;;;;6.05;4.10;;;19.00;1.00;;;;;;5050896;28;20446;-72
2023/06/25 04:34:23;;;;;;;5.38;4.10;;;19.00;1.00;;;;;;5049851;28;20025;-72
2023/06/25 04:36:48;;;;;;;6.35;3.90;;;19.00;1.00;;;;;;5048872;28;20033;-72
2023/06/25 04:39:14;;;;;;;7.40;4.30;;;19.00;1.00;;;;;;5050283;28;20029;-72
2023/06/25 04:41:40;;;;;;;10.02;4.43;;;19.00;1.00;;;;;;5050080;28;20636;-72
2023/06/25 04:44:05;;;;;;;6.78;4.05;;;19.00;1.00;;;;;;5050395;28;20029;-72
2023/06/25 04:46:31;;;;;;;5.30;3.60;;;19.10;1.00;;;;;;5048555;28;20462;-72
2023/06/25 04:48:57;;;;;;;5.43;3.83;;;19.10;1.00;;;;;;5050212;28;20187;-72
2023/06/25 04:51:23;;;;;;;7.60;4.50;;;19.10;1.00;;;;;;5049627;28;20025;-73
2023/06/25 04:53:49;;;;;;;7.45;4.30;;;19.10;1.00;;;;;;5050360;28;20025;-73
2023/06/25 04:56:15;;;;;;;6.15;4.20;;;19.10;1.00;;;;;;5050723;28;20072;-72
2023/06/25 04:58:41;;;;;;;10.10;4.40;;;19.10;1.00;;;;;;5050465;28;20148;-72
2023/06/25 05:01:07;;;;;;;8.20;4.40;;;19.10;1.00;;;;;;5050418;28;20079;-73
2023/06/25 05:03:32;;;;;;;8.15;4.53;;;19.10;1.00;;;;;;5050070;28;20036;-73
2023/06/25 05:05:58;;;;;;;6.30;4.60;;;19.20;1.00;;;;;;5050087;28;20040;-73
2023/06/25 05:08:24;;;;;;;6.47;4.05;;;19.20;1.00;;;;;;5049486;28;20033;-73
2023/06/25 05:10:50;;;;;;;7.70;4.50;;;19.20;1.00;;;;;;5049889;28;20017;-73
2023/06/25 05:13:16;;;;;;;10.27;4.60;;;19.20;1.00;;;;;;5049651;28;20052;-72
2023/06/25 05:15:41;;;;;;;5.78;4.25;;;19.10;1.00;;;;;;5049539;28;20099;-72
2023/06/25 05:18:08;;;;;;;8.00;4.53;;;19.20;1.00;;;;;;5052399;28;20029;-72
2023/06/25 05:20:38;;;;;;;6.82;4.60;;;19.20;1.00;;;;;;5053285;28;20441;-72
2023/06/25 05:23:07;;;;;;;8.15;4.50;;;19.20;1.00;;;;;;5053745;28;20037;-72
2023/06/25 05:25:34;;;;;;;8.00;4.65;;;19.20;1.00;;;;;;5051878;28;20029;-71
2023/06/25 05:28:03;;;;;;;7.85;4.97;;;19.20;1.00;;;;;;5053685;28;20467;-72
2023/06/25 05:30:30;;;;;;;6.13;4.38;;;19.20;1.00;;;;;;5053209;28;20379;-72
2023/06/25 05:32:56;;;;;;;6.90;3.90;;;19.10;1.00;;;;;;5053697;28;20023;-71
2023/06/25 05:35:28;;;;;;;7.03;4.65;;;19.10;1.00;;;;;;5053860;28;20047;-72
2023/06/25 05:37:55;;;;;;;;;;;19.10;2.60;;;;;;5054417;28;20045;-73
2023/06/25 05:40:20;;;;;;;5.95;3.90;;;19.10;58.20;;;;;;5053779;28;19904;-73
2023/06/25 05:42:46;;;;;;;6.82;4.22;;;19.00;58.90;;;;;;5052975;28;20104;-73
2023/06/25 05:45:12;;;;;;;6.88;4.38;;;19.00;89.80;;;;;;5053846;28;20052;-73
2023/06/25 05:47:38;;;;;;;5.40;3.47;;;18.90;99.90;;;;;;5053181;28;20052;-74
2023/06/25 05:50:04;;;;;;;7.82;4.50;;;18.90;99.20;;;;;;5053526;28;20462;-73
2023/06/25 05:52:30;;;;;;;6.55;4.35;;;18.80;99.90;;;;;;5051699;28;20029;-72
2023/06/25 05:54:55;;;;;;;9.40;4.65;;;18.70;99.90;;;;;;5053445;28;20056;-72
2023/06/25 05:57:21;;;;;;;7.05;4.78;;;18.70;99.90;;;;;;5052485;28;20124;-73
2023/06/25 05:59:47;;;;;;;7.25;4.93;;;18.60;99.90;;;;;;5053521;28;20037;-75
2023/06/25 06:02:12;;;;;;;8.98;4.85;;;18.50;99.90;;;;;;5054153;28;20105;-76
2023/06/25 06:04:38;;;;;;;7.80;5.30;;;18.40;99.90;;;;;;5052931;28;20025;-76
2023/06/25 06:07:04;;;;;;;10.00;5.78;;;18.30;99.90;;;;;;5053810;28;20044;-76
2023/06/25 06:09:30;;;;;;;7.10;5.53;;;18.20;99.90;;;;;;5053159;28;20379;-77
2023/06/25 06:11:56;;;;;;;10.75;5.38;;;18.20;99.90;;;;;;5053630;28;20025;-75
2023/06/25 06:14:21;;;;;;;11.27;6.40;;;18.10;99.90;;;;;;5053689;28;20418;-75
2023/06/25 06:16:47;;;;;;;9.07;5.78;;;18.10;99.90;;;;;;5052890;28;20031;-75
2023/06/25 06:19:13;;;;;;;9.25;5.85;;;18.00;99.90;;;;;;5053367;28;20043;-75
2023/06/25 06:21:39;;;;;;;9.63;5.85;;;18.00;99.90;;;;;;5052562;28;20036;-75
2023/06/25 06:24:04;;;;;;;10.15;5.57;;;18.00;99.90;;;;;;5052977;28;20124;-74
2023/06/25 06:26:30;;;;;;;10.65;6.25;;;18.00;99.90;;;;;;5052462;28;20029;-73
2023/06/25 06:28:56;;;;;;;11.02;6.25;;;18.00;99.90;;;;;;5052531;28;20072;-74
2023/06/25 06:31:22;;;;;;;6.80;5.95;;;18.10;99.90;;;;;;5053086;28;20133;-73
2023/06/25 06:33:47;;;;;;;7.32;5.30;;;18.00;99.90;;;;;;5052484;28;20021;-74
2023/06/25 06:36:13;;;;;;;7.10;4.95;;;18.00;99.90;;;;;;5052865;28;20040;-74
2023/06/25 06:38:39;;;;;;;5.80;4.80;;;18.00;99.90;;;;;;5052455;28;20025;-75
2023/06/25 06:41:05;;;;;;;6.55;4.63;;;17.90;99.90;;;;;;5053479;28;20029;-73
2023/06/25 06:43:31;;;;;;;5.65;4.15;;;18.00;99.90;;;;;;5052331;28;20395;-74
2023/06/25 06:45:57;;;;;;;7.97;4.97;;;18.00;99.90;;;;;;5052781;28;20033;-74
2023/06/25 06:48:24;;;;;;;5.47;4.28;;;17.90;99.90;;;;;;5052700;28;20494;-73
2023/06/25 06:50:50;;;;;;;6.43;4.82;;;17.90;99.90;;;;;;5052157;28;20025;-74
2023/06/25 06:53:15;;;;;;;6.45;4.10;;;17.90;99.90;;;;;;5052816;28;20098;-73
2023/06/25 06:55:41;;;;;;;4.95;4.43;;;17.90;99.90;;;;;;5052184;28;20421;-73
2023/06/25 06:58:07;;;;;;;7.18;4.32;;;17.80;99.90;;;;;;5051582;28;20079;-73
2023/06/25 07:00:32;;;;;;;6.75;4.85;;;17.90;99.90;;;;;;5052057;28;20356;-73
2023/06/25 07:02:59;;;;;;;7.13;4.68;;;17.90;99.90;;;;;;5052516;28;20051;-73
2023/06/25 07:05:25;;;;;;;6.55;4.88;;;17.80;99.90;;;;;;5052417;28;20029;-74
2023/06/25 07:07:51;;;;;;;6.65;4.50;;;17.80;99.90;;;;;;5052004;28;20052;-73
2023/06/25 07:10:16;;;;;;;5.80;3.95;;;17.90;99.90;;;;;;5052384;28;20060;-73
2023/06/25 07:12:42;;;;;;;4.68;3.55;;;17.90;99.90;;;;;;5051693;28;20443;-74
2023/06/25 07:15:08;;;;;;;4.38;2.35;;;17.80;99.90;;;;;;5050993;28;20052;-74
2023/06/25 07:17:34;;;;;;;2.97;2.25;;;17.70;99.90;;;;;;5051788;28;20029;-73
2023/06/25 07:20:00;;;;;;;2.88;1.90;;;17.50;99.90;;;;;;5052127;28;20043;-74
2023/06/25 07:22:26;;;;;;;1.92;1.77;;;17.40;99.90;;;;;;5051727;28;20025;-74
2023/06/25 07:24:52;;;;;;;3.65;1.73;;;17.40;99.90;;;;;;5051545;28;20544;-73
2023/06/25 07:27:17;;;;;;;1.75;1.65;;;17.30;99.90;;;;;;5052001;28;20033;-73
2023/06/25 07:29:43;;;;;;;3.15;1.95;;;17.20;99.90;;;;;;5050724;28;20080;-74
2023/06/25 07:32:09;;;;;;;5.95;2.47;;;17.10;99.90;;;;;;5051736;28;20029;-74
2023/06/25 07:34:35;;;;;;;2.80;1.85;;;17.10;99.90;;;;;;5051420;28;20104;-74
2023/06/25 07:37:01;;;;;;;3.70;2.00;;;17.10;99.90;;;;;;5051645;28;20112;-73
2023/06/25 07:39:33;;;;;;;2.72;2.17;;;17.10;99.90;;;;;;5051337;28;20091;-74
2023/06/25 07:41:59;;;;;;;5.38;2.13;;;17.10;99.90;;;;;;5051316;28;20095;-73
2023/06/25 07:44:25;;;;;;;1.77;1.60;;;17.20;99.90;;;;;;5050212;28;20033;-74
2023/06/25 07:46:52;;;;;;;2.83;2.17;;;17.20;99.90;;;;;;5049380;28;20585;-74
2023/06/25 07:49:18;;;;;;;1.95;1.75;;;17.20;99.90;;;;;;5051625;28;20417;-75
2023/06/25 07:51:49;;;;;;;3.28;2.22;;;17.20;99.90;;;;;;5050767;28;20059;-75
2023/06/25 07:54:14;;;;;;;4.03;2.35;;;17.20;99.90;;;;;;5050936;28;20561;-75
2023/06/25 07:56:41;;;;;;;3.03;2.50;;;17.20;99.90;;;;;;5050893;28;20061;-75
2023/06/25 07:59:07;;;;;;;3.35;2.33;;;17.20;99.90;;;;;;5051356;28;20060;-75
2023/06/25 08:01:33;;;;;;;2.92;2.38;;;17.20;99.90;;;;;;5050998;28;20051;-76
2023/06/25 08:03:59;;;;;;;2.95;2.20;;;17.20;99.90;;;;;;5049886;28;20390;-75
2023/06/25 08:06:24;;;;;;;2.75;2.00;;;17.30;99.90;;;;;;5051117;28;20037;-74
2023/06/25 08:08:50;;;;;;;2.40;2.17;;;17.30;99.90;;;;;;5050702;28;20052;-75
2023/06/25 08:11:16;;;;;;;2.95;2.30;;;17.30;99.90;;;;;;5051262;28;20332;-75
2023/06/25 08:13:42;;;;;;;3.03;2.08;;;17.20;99.90;;;;;;5050151;28;20124;-76
2023/06/25 08:16:07;;;;;;;3.25;2.10;;;17.30;99.90;;;;;;5051197;28;20060;-76
2023/06/25 08:18:33;;;;;;;3.13;2.15;;;17.30;99.90;;;;;;5050842;28;20112;-77
2023/06/25 08:20:59;;;;;;;4.00;2.05;;;17.20;99.90;;;;;;5050662;28;20104;-76
2023/06/25 08:23:25;;;;;;;3.67;1.80;;;17.20;99.90;;;;;;5051032;28;20044;-76
2023/06/25 08:25:53;;;;;;;2.35;2.00;;;17.10;99.90;;;;;;5050447;28;20037;-76
2023/06/25 08:28:19;;;;;;;3.55;1.95;;;17.10;99.90;;;;;;5049240;28;20154;-76
2023/06/25 08:30:44;;;;;;;2.30;1.70;;;17.10;99.90;;;;;;5051046;28;20028;-76
2023/06/25 08:33:10;;;;;;;2.35;1.73;;;17.10;99.90;;;;;;5050892;28;20096;-75
2023/06/25 08:35:36;;;;;;;2.38;1.70;;;17.10;99.90;;;;;;5050807;28;20075;-75
2023/06/25 08:38:01;;;;;;;1.67;1.58;;;17.10;99.90;;;;;;5051361;28;20033;-74
2023/06/25 08:40:31;;;;;;;2.63;1.85;;;17.10;99.90;;;;;;5051077;28;20495;-74
2023/06/25 08:42:57;;;;;;;2.50;1.60;;;17.10;99.90;;;;;;5050271;28;20025;-74
2023/06/25 08:45:22;;;;;;;1.95;1.85;;;17.10;99.90;;;;;;5051144;28;20028;-74
2023/06/25 08:47:55;;;;;;;2.20;2.00;;;17.20;99.90;;;;;;5050472;28;20430;-75
2023/06/25 08:50:21;;;;;;;4.50;1.98;;;17.20;99.90;;;;;;5051250;28;20454;-75
2023/06/25 08:52:47;;;;;;;2.25;1.90;;;17.20;99.90;;;;;;5049442;28;20421;-75
2023/06/25 08:55:14;;;;;;;2.25;1.55;;;17.20;99.90;;;;;;5050916;28;20029;-74
2023/06/25 08:57:40;;;;;;;2.92;1.90;;;17.20;99.90;;;;;;5050467;28;20029;-75
2023/06/25 09:00:07;;;;;;;2.53;2.05;;;17.40;99.90;;;;;;5049091;28;20116;-74
2023/06/25 09:02:34;;;;;;;3.70;1.80;;;17.40;99.90;;;;;;5051011;28;20029;-74
2023/06/25 09:05:07;;;;;;;2.63;2.10;;;17.40;99.90;;;;;;5050531;28;20162;-73
2023/06/25 09:07:43;;;;;;;3.72;1.90;;;17.50;99.90;;;;;;5051287;28;20091;-73
2023/06/25 09:10:09;;;;;;;2.38;1.50;;;17.60;99.90;;;;;;5050722;28;20021;-73
2023/06/25 09:12:35;;;;;;;2.80;1.67;;;17.60;99.90;;;;;;5049197;28;20461;-73
2023/06/25 09:15:01;;;;;;;3.40;1.83;;;17.70;99.90;;;;;;5049827;28;20021;-73
2023/06/25 09:17:27;;;;;;;3.78;1.80;;;17.80;99.90;;;;;;5049952;28;20029;-73
2023/06/25 09:19:53;;;;;;;2.58;1.90;;;17.90;99.90;;;;;;5050013;28;20025;-73
2023/06/25 09:22:18;;;;;;;2.38;1.80;;;17.90;99.90;;;;;;5050480;28;20036;-74
2023/06/25 09:24:47;;;;;;;2.38;1.90;;;17.80;99.90;;;;;;5049902;28;20427;-74
2023/06/25 09:27:13;;;;;;;2.97;2.05;;;17.80;99.90;;;;;;5051207;28;20061;-74
2023/06/25 09:29:39;;;;;;;2.72;2.00;;;17.80;99.90;;;;;;5049826;28;20490;-75
2023/06/25 09:32:09;;;;;;;2.70;2.15;;;17.90;99.90;;;;;;5051189;28;20029;-72
2023/06/25 09:34:35;;;;;;;4.10;1.80;;;17.80;99.90;;;;;;5050365;28;20022;-73
2023/06/25 09:37:04;;;;;;;3.75;1.90;;;17.70;99.90;;;;;;5049906;28;20036;-73
2023/06/25 09:39:31;;;;;;;3.10;2.20;;;17.70;99.90;;;;;;5049966;28;20033;-73
2023/06/25 09:41:58;;;;;;;2.45;1.98;;;17.80;99.90;;;;;;5049333;28;20055;-73
2023/06/25 09:44:24;;;;;;;4.78;2.08;;;18.00;99.90;;;;;;5048364;28;20040;-74
2023/06/25 09:46:53;;;;;;;2.97;1.75;;;18.20;99.90;;;;;;5049605;28;20060;-74
2023/06/25 09:49:20;;;;;;;2.55;1.77;;;18.30;99.90;;;;;;5049453;28;20455;-74
2023/06/25 09:51:53;;;;;;;1.90;1.75;;;18.40;99.90;;;;;;5049867;28;20033;-72
2023/06/25 09:54:22;;;;;;;5.13;1.98;;;18.50;99.90;;;;;;5049984;28;20379;-73
2023/06/25 09:56:49;;;;;;;2.70;1.80;;;18.60;99.90;;;;;;5049262;28;20025;-73
2023/06/25 09:59:16;;;;;;;4.97;1.77;;;18.60;99.90;;;;;;5049252;28;20104;-74
2023/06/25 10:01:42;;;;;;;2.35;1.95;;;18.60;99.90;;;;;;5048626;28;20083;-74
2023/06/25 10:04:08;;;;;;;3.17;1.80;;;18.60;99.90;;;;;;5051031;28;20029;-73
2023/06/25 10:06:36;;;;;;;1.70;1.40;;;18.60;99.90;;;;;;5052849;28;20044;-73
2023/06/25 10:09:05;;;;;;;2.97;2.05;;;18.60;99.90;;;;;;5052341;28;20029;-74
2023/06/25 10:11:31;;;;;;;3.30;1.65;;;18.80;99.90;;;;;;5053119;28;20025;-73
2023/06/25 10:13:58;;;;;;;3.50;1.60;;;18.90;99.90;;;;;;5052275;28;20452;-73
2023/06/25 10:16:29;;;;;;;3.53;1.30;;;19.10;99.90;;;;;;5052871;28;20382;-73
2023/06/25 10:18:56;;;;;;;2.63;1.30;;;19.10;99.90;;;;;;5050441;28;20398;-74
2023/06/25 10:21:24;;;;;;;2.65;1.30;;;19.10;99.90;;;;;;5051024;28;20028;-74
2023/06/25 10:24:03;;;;;;;2.15;1.20;;;19.10;99.90;;;;;;5050528;28;20051;-74
2023/06/25 10:26:32;;;;;;;1.33;1.23;;;19.10;99.90;;;;;;5052093;28;20025;-74
2023/06/25 10:29:05;;;;;;;1.98;1.50;;;19.10;99.90;;;;;;5051659;28;20132;-73
2023/06/25 10:31:38;;;;;;;2.35;1.42;;;19.00;99.90;;;;;;5051982;28;20033;-74
2023/06/25 10:34:08;;;;;;;2.65;1.10;;;18.90;99.90;;;;;;5051666;28;20367;-74
2023/06/25 10:36:34;;;;;;;3.17;1.30;;;18.80;99.90;;;;;;5051894;28;20464;-73
2023/06/25 10:39:01;;;;;;;4.28;1.40;;;18.80;99.90;;;;;;5051917;28;20029;-72
2023/06/25 10:41:27;;;;;;;1.80;1.33;;;18.80;99.90;;;;;;5052031;28;20359;-74
2023/06/25 10:43:53;;;;;;;1.50;1.20;;;18.80;99.90;;;;;;5051312;28;20132;-74
2023/06/25 10:46:30;;;;;;;1.85;1.20;;;18.90;99.90;;;;;;5051962;28;20520;-73
2023/06/25 10:48:59;;;;;;;1.58;1.08;;;18.90;99.90;;;;;;5051360;28;20025;-73
2023/06/25 10:51:25;;;;;;;1.60;1.08;;;18.90;99.90;;;;;;5051610;28;20083;-73
2023/06/25 10:53:53;;;;;;;1.88;1.10;;;18.90;99.90;;;;;;5051515;28;20029;-74
2023/06/25 10:56:19;;;;;;;4.25;1.10;;;18.90;99.90;;;;;;5051819;28;20466;-73
2023/06/25 10:58:45;;;;;;;3.00;1.13;;;18.90;99.90;;;;;;5051654;28;20033;-73
2023/06/25 11:01:11;;;;;;;1.20;1.00;;;19.00;99.90;;;;;;5052464;28;20423;-73
2023/06/25 11:03:38;;;;;;;2.92;1.00;;;19.20;99.90;;;;;;5052095;28;20110;-73
2023/06/25 11:06:04;;;;;;;3.45;1.05;;;19.30;99.90;;;;;;5051533;28;20075;-73
2023/06/25 11:08:30;;;;;;;3.28;1.00;;;19.50;99.90;;;;;;5051572;28;20526;-73
2023/06/25 11:10:56;;;;;;;0.80;0.63;;;19.70;99.90;;;;;;5050856;28;20100;-73
2023/06/25 11:13:21;;;;;;;1.40;0.85;;;19.90;99.90;;;;;;5051425;28;20128;-73
2023/06/25 11:15:47;;;;;;;1.98;0.95;;;20.00;99.90;;;;;;5048577;28;20068;-74
2023/06/25 11:18:13;;;;;;;2.17;1.08;;;20.10;99.90;;;;;;5051310;28;20152;-73
2023/06/25 11:20:40;;;;;;;3.55;1.08;;;20.20;99.90;;;;;;5051622;28;20020;-73
2023/06/25 11:23:10;;;;;;;2.70;1.23;;;20.30;99.90;;;;;;5051997;28;20040;-73
2023/06/25 11:25:36;;;;;;;1.83;1.00;;;20.50;99.90;;;;;;5051427;28;20032;-73
2023/06/25 11:28:13;;;;;;;1.08;0.80;;;20.60;99.90;;;;;;5051873;28;20049;-73
2023/06/25 11:30:40;;;;;;;3.75;0.98;;;20.70;99.90;;;;;;5051382;28;20029;-73
2023/06/25 11:33:17;;;;;;;2.13;0.80;;;20.60;99.90;;;;;;5051150;28;20124;-73
2023/06/25 11:35:50;;;;;;;2.40;0.98;;;20.50;99.90;;;;;;5050692;28;20358;-75
2023/06/25 11:38:27;;;;;;;1.33;1.10;;;20.40;99.90;;;;;;5050398;28;20049;-74
2023/06/25 11:40:55;;;;;;;2.10;1.10;;;20.30;99.90;;;;;;5050294;28;20087;-73
2023/06/25 11:43:22;;;;;;;3.80;1.38;;;20.30;99.90;;;;;;5049797;28;20099;-73
2023/06/25 11:45:48;;;;;;;1.13;1.00;;;20.40;99.90;;;;;;5050459;28;20163;-73
2023/06/25 11:48:15;;;;;;;2.22;1.05;;;20.50;99.90;;;;;;5050282;28;20128;-73
2023/06/25 11:50:42;;;;;;;2.47;0.98;;;20.50;99.90;;;;;;5049777;28;20358;-75
2023/06/25 11:53:09;;;;;;;2.50;1.42;;;20.50;99.90;;;;;;5050221;28;20032;-73
2023/06/25 11:55:35;;;;;;;4.43;1.50;;;20.30;99.90;;;;;;5049806;28;20025;-73
2023/06/25 11:58:00;;;;;;;2.40;1.48;;;20.40;99.90;;;;;;5048662;28;20096;-73
2023/06/25 12:00:26;;;;;;;4.55;1.40;;;20.50;99.90;;;;;;5050440;28;20035;-74
2023/06/25 12:02:52;;;;;;;2.92;1.23;;;20.40;99.90;;;;;;5049356;28;20110;-74
2023/06/25 12:05:17;;;;;;;2.67;1.10;;;20.30;99.90;;;;;;5050666;28;20071;-72
2023/06/25 12:07:43;;;;;;;5.10;1.30;;;20.30;99.90;;;;;;5049272;28;20029;-73
2023/06/25 12:10:09;;;;;;;4.13;1.30;;;20.20;97.40;;;;;;5049673;28;20111;-73
2023/06/25 12:12:35;;;;;;;1.13;0.90;;;20.10;81.70;;;;;;5050022;28;20025;-73
2023/06/25 12:15:01;;;;;;;3.90;1.10;;;20.00;93.60;;;;;;5049283;28;20021;-73
2023/06/25 12:17:26;;;;;;;3.05;1.20;;;20.10;99.90;;;;;;5049968;28;20036;-73
2023/06/25 12:19:52;;;;;;;2.58;0.88;;;20.20;99.90;;;;;;5049642;28;20047;-75
2023/06/25 12:22:18;;;;;;;2.63;0.95;;;20.30;94.80;;;;;;5050528;28;20036;-73
2023/06/25 12:24:43;;;;;;;3.35;0.75;;;20.40;94.30;;;;;;5047874;28;20033;-74
2023/06/25 12:27:09;;;;;;;3.92;0.90;;;20.50;79.60;;;;;;5049810;28;20116;-73
2023/06/25 12:29:35;;;;;;;3.15;0.98;;;20.50;78.10;;;;;;5050365;28;20554;-73
2023/06/25 12:32:01;;;;;;;3.22;0.70;;;20.60;83.70;;;;;;5048957;28;20048;-73
2023/06/25 12:34:27;;;;;;;3.55;0.95;;;20.80;82.30;;;;;;5048125;28;20031;-74
2023/06/25 12:36:53;;;;;;;2.47;1.00;;;21.00;71.50;;;;;;5047581;28;20128;-73
2023/06/25 12:39:18;;;;;;;1.73;0.88;;;21.00;52.20;;;;;;5048382;28;20112;-73
2023/06/25 12:41:44;;;;;;;2.35;1.00;;;21.10;45.40;;;;;;5047633;28;20043;-74
2023/06/25 12:44:10;;;;;;;1.42;0.73;;;21.10;44.50;;;;;;5050394;28;20064;-73